createdAt,value
2019-03-19T00:03:58.509Z,100.00
2019-03-19T00:06:26.799Z,100.00
2019-03-19T00:08:55.068Z,100.00
2019-03-19T00:11:23.337Z,100.00
2019-03-19T00:13:51.624Z,100.00
2019-03-19T00:16:19.883Z,100.00
2019-03-19T00:18:48.130Z,100.00
2019-03-19T00:21:16.416Z,100.00
2019-03-19T00:23:44.685Z,100.00
2019-03-19T00:26:12.952Z,100.00
2019-03-19T00:28:41.220Z,100.00
2019-03-19T00:31:09.485Z,100.00
2019-03-19T00:33:37.758Z,100.00
2019-03-19T00:36:06.048Z,100.00
2019-03-19T00:38:34.313Z,100.00
2019-03-19T00:41:02.594Z,100.00
2019-03-19T00:43:30.852Z,100.00
2019-03-19T00:45:59.127Z,100.00
2019-03-19T00:48:27.407Z,100.00
2019-03-19T00:50:55.682Z,100.00
2019-03-19T00:53:23.960Z,100.00
2019-03-19T00:55:52.230Z,100.00
2019-03-19T00:58:20.533Z,100.00
2019-03-19T01:00:48.827Z,100.00
2019-03-19T01:03:17.097Z,100.00
2019-03-19T01:05:45.354Z,100.00
2019-03-19T01:08:13.639Z,100.00
2019-03-19T01:10:41.905Z,100.00
2019-03-19T01:13:10.177Z,100.00
2019-03-19T01:15:38.444Z,100.00
2019-03-19T01:18:06.710Z,100.00
2019-03-19T01:20:34.995Z,100.00
2019-03-19T01:23:03.257Z,100.00
2019-03-19T01:25:31.516Z,100.00
2019-03-19T01:27:59.785Z,100.00
2019-03-19T01:30:28.060Z,100.00
2019-03-19T01:32:56.340Z,100.00
2019-03-19T01:35:24.605Z,100.00
2019-03-19T01:37:52.874Z,100.00
2019-03-19T01:40:21.145Z,100.00
2019-03-19T01:42:49.417Z,100.00
2019-03-19T01:45:17.692Z,100.00
2019-03-19T01:47:45.958Z,100.00
2019-03-19T01:53:11.836Z,100.00
2019-03-19T01:55:40.100Z,100.00
2019-03-19T01:58:08.365Z,100.00
2019-03-19T02:00:36.638Z,100.00
2019-03-19T02:03:04.907Z,100.00
2019-03-19T02:05:33.176Z,100.00
2019-03-19T02:08:01.458Z,100.00
2019-03-19T02:10:29.722Z,100.00
2019-03-19T02:12:57.992Z,100.00
2019-03-19T02:15:26.259Z,100.00
2019-03-19T02:17:54.522Z,100.00
2019-03-19T02:20:22.784Z,100.00
2019-03-19T02:22:51.054Z,100.00
2019-03-19T02:25:19.323Z,100.00
2019-03-19T02:27:47.584Z,100.00
2019-03-19T02:33:09.894Z,100.00
2019-03-19T02:35:38.149Z,100.00
2019-03-19T02:38:06.427Z,100.00
2019-03-19T02:40:34.696Z,100.00
2019-03-19T02:43:02.966Z,100.00
2019-03-19T02:45:31.223Z,100.00
2019-03-19T02:51:12.938Z,100.00
2019-03-19T02:53:41.224Z,100.00
2019-03-19T02:56:09.488Z,100.00
2019-03-19T02:58:37.750Z,100.00
2019-03-19T03:01:06.026Z,100.00
2019-03-19T03:03:34.298Z,100.00
2019-03-19T03:06:02.575Z,100.00
2019-03-19T03:08:30.835Z,100.00
2019-03-19T03:10:59.093Z,100.00
2019-03-19T03:16:10.333Z,100.00
2019-03-19T03:18:38.584Z,100.00
2019-03-19T03:24:26.031Z,100.00
2019-03-19T03:26:54.297Z,100.00
2019-03-19T03:29:22.597Z,100.00
2019-03-19T03:31:50.854Z,100.00
2019-03-19T03:34:19.168Z,100.00
2019-03-19T03:36:47.405Z,100.00
2019-03-19T03:39:15.687Z,100.00
2019-03-19T03:41:43.955Z,100.00
2019-03-19T03:44:12.229Z,100.00
2019-03-19T03:46:40.498Z,100.00
2019-03-19T03:49:08.758Z,100.00
2019-03-19T03:51:37.022Z,100.00
2019-03-19T03:54:05.280Z,100.00
2019-03-19T04:02:37.915Z,100.00
2019-03-19T04:08:27.521Z,100.00
2019-03-19T04:10:55.799Z,100.00
2019-03-19T04:13:24.065Z,100.00
2019-03-19T04:19:19.679Z,100.00
2019-03-19T04:21:47.943Z,100.00
2019-03-19T04:24:16.202Z,100.00
2019-03-19T04:26:44.476Z,100.00
2019-03-19T04:32:12.458Z,100.00
2019-03-19T04:34:40.694Z,100.00
2019-03-19T04:37:08.989Z,100.00
2019-03-19T04:39:37.232Z,100.00
2019-03-19T04:42:05.507Z,100.00
2019-03-19T04:47:29.311Z,100.00
2019-03-19T04:49:57.565Z,100.00
2019-03-19T04:52:25.857Z,100.00
2019-03-19T04:54:54.123Z,100.00
2019-03-19T04:57:26.872Z,100.00
2019-03-19T04:59:52.389Z,100.00
2019-03-19T05:02:20.647Z,100.00
2019-03-19T05:04:48.912Z,100.00
2019-03-19T05:13:21.986Z,100.00
2019-03-19T05:15:50.328Z,100.00
2019-03-19T05:18:18.588Z,100.00
2019-03-19T05:20:46.867Z,100.00
2019-03-19T05:23:15.131Z,100.00
2019-03-19T05:25:43.394Z,100.00
2019-03-19T05:28:11.667Z,100.00
2019-03-19T05:30:39.935Z,100.00
2019-03-19T05:33:08.207Z,100.00
2019-03-19T05:35:36.495Z,100.00
2019-03-19T05:38:04.772Z,100.00
2019-03-19T05:40:33.025Z,100.00
2019-03-19T05:43:01.301Z,100.00
2019-03-19T05:45:29.586Z,100.00
2019-03-19T05:47:57.855Z,100.00
2019-03-19T05:50:26.124Z,100.00
2019-03-19T05:52:54.401Z,100.00
2019-03-19T05:55:22.676Z,100.00
2019-03-19T05:57:50.937Z,100.00
2019-03-19T06:03:26.672Z,100.00
2019-03-19T06:05:54.934Z,100.00
2019-03-19T06:08:23.561Z,100.00
2019-03-19T06:10:51.827Z,100.00
2019-03-19T06:13:20.108Z,100.00
2019-03-19T06:15:48.382Z,100.00
2019-03-19T06:18:16.681Z,100.00
2019-03-19T06:20:44.949Z,100.00
2019-03-19T06:23:13.214Z,100.00
2019-03-19T06:25:41.484Z,100.00
2019-03-19T06:28:09.752Z,100.00
2019-03-19T06:30:38.008Z,100.00
2019-03-19T06:33:06.272Z,100.00
2019-03-19T06:38:45.581Z,100.00
2019-03-19T06:41:13.857Z,100.00
2019-03-19T06:43:42.274Z,100.00
2019-03-19T06:46:10.538Z,100.00
2019-03-19T06:48:38.815Z,100.00
2019-03-19T06:51:07.071Z,100.00
2019-03-19T06:53:35.349Z,100.00
2019-03-19T06:56:03.626Z,100.00
2019-03-19T06:58:31.902Z,100.00
2019-03-19T07:01:00.162Z,100.00
2019-03-19T07:03:28.425Z,100.00
2019-03-19T07:05:56.688Z,100.00
2019-03-19T07:08:24.971Z,100.00
2019-03-19T07:10:53.233Z,100.00
2019-03-19T07:13:21.491Z,100.00
2019-03-19T07:15:49.769Z,100.00
2019-03-19T07:18:18.043Z,100.00
2019-03-19T07:20:46.314Z,100.00
2019-03-19T07:23:14.572Z,100.00
2019-03-19T07:25:42.851Z,100.00
2019-03-19T07:28:21.404Z,100.00
2019-03-19T07:30:41.149Z,100.00
2019-03-19T07:33:28.109Z,100.00
2019-03-19T07:35:56.393Z,99.57
2019-03-19T07:38:24.664Z,99.55
2019-03-19T07:40:52.941Z,99.06
2019-03-19T07:43:21.210Z,97.95
2019-03-19T07:45:49.476Z,97.79
2019-03-19T07:48:17.736Z,97.27
2019-03-19T07:50:45.993Z,95.42
2019-03-19T07:53:14.276Z,94.32
2019-03-19T07:55:42.538Z,94.98
2019-03-19T07:58:10.788Z,94.46
2019-03-19T08:00:39.054Z,92.77
2019-03-19T08:03:15.602Z,92.01
2019-03-19T08:05:37.288Z,91.47
2019-03-19T08:08:05.547Z,91.81
2019-03-19T08:10:33.808Z,90.18
2019-03-19T08:13:02.127Z,90.11
2019-03-19T08:15:30.329Z,87.96
2019-03-19T08:17:58.583Z,88.40
2019-03-19T08:23:15.835Z,88.25
2019-03-19T08:25:44.107Z,85.97
2019-03-19T08:28:12.368Z,87.26
2019-03-19T08:30:40.628Z,84.24
2019-03-19T08:33:08.879Z,84.57
2019-03-19T08:35:38.060Z,85.74
2019-03-19T08:38:07.135Z,83.23
2019-03-19T08:40:35.396Z,82.77
2019-03-19T08:43:03.674Z,83.98
2019-03-19T08:45:31.941Z,82.77
2019-03-19T08:48:00.191Z,83.16
2019-03-19T08:50:28.452Z,82.87
2019-03-19T08:52:56.712Z,82.47
2019-03-19T08:55:24.985Z,82.30
2019-03-19T08:57:53.239Z,82.12
2019-03-19T09:03:17.623Z,82.11
2019-03-19T09:08:12.268Z,79.15
2019-03-19T09:10:40.523Z,80.73
2019-03-19T09:13:08.782Z,79.91
2019-03-19T09:18:57.897Z,78.28
2019-03-19T09:21:26.142Z,78.67
2019-03-19T09:23:54.434Z,78.93
2019-03-19T09:26:22.696Z,77.68
2019-03-19T09:35:31.436Z,76.33
2019-03-19T09:37:59.711Z,78.47
2019-03-19T09:40:27.977Z,79.38
2019-03-19T09:42:56.413Z,78.20
2019-03-19T09:45:24.665Z,76.94
2019-03-19T09:47:52.923Z,75.35
2019-03-19T09:53:18.682Z,74.35
2019-03-19T09:55:46.746Z,73.57
2019-03-19T10:01:02.332Z,74.45
2019-03-19T10:03:30.594Z,72.94
2019-03-19T10:05:58.853Z,73.11
2019-03-19T10:08:27.120Z,73.21
2019-03-19T10:10:55.373Z,72.06
2019-03-19T10:13:23.646Z,71.92
2019-03-19T10:15:51.918Z,69.69
2019-03-19T10:18:20.171Z,68.45
2019-03-19T10:20:48.430Z,69.32
2019-03-19T10:23:16.691Z,70.81
2019-03-19T10:25:44.946Z,68.96
2019-03-19T10:31:18.616Z,66.48
2019-03-19T10:33:46.870Z,66.15
2019-03-19T10:36:15.151Z,65.97
2019-03-19T10:38:43.407Z,66.65
2019-03-19T10:41:30.783Z,68.76
2019-03-19T10:47:09.136Z,69.01
2019-03-19T10:49:37.387Z,66.59
2019-03-19T10:54:52.978Z,64.22
2019-03-19T10:57:21.235Z,62.57
2019-03-19T11:06:27.973Z,62.64
2019-03-19T11:08:56.240Z,62.42
2019-03-19T11:11:24.504Z,62.57
2019-03-19T11:13:52.763Z,62.33
2019-03-19T11:16:21.018Z,59.76
2019-03-19T11:21:32.728Z,58.77
2019-03-19T11:24:00.979Z,60.67
2019-03-19T11:26:29.253Z,59.95
2019-03-19T11:28:57.510Z,58.71
2019-03-19T11:31:25.776Z,59.25
2019-03-19T11:34:09.518Z,59.09
2019-03-19T11:36:37.765Z,60.05
2019-03-19T11:42:17.651Z,57.89
2019-03-19T11:44:46.809Z,57.95
2019-03-19T11:47:15.076Z,55.86
2019-03-19T11:49:43.345Z,55.98
2019-03-19T11:52:11.613Z,56.85
2019-03-19T11:54:39.867Z,55.24
2019-03-19T11:57:08.119Z,53.86
2019-03-19T11:59:36.386Z,55.44
2019-03-19T12:02:04.638Z,55.38
2019-03-19T12:04:32.907Z,57.11
2019-03-19T12:07:01.164Z,57.37
2019-03-19T12:09:29.425Z,56.31
2019-03-19T12:11:57.680Z,57.38
2019-03-19T12:14:26.044Z,56.77
2019-03-19T12:16:54.301Z,58.47
2019-03-19T12:19:22.550Z,57.57
2019-03-19T12:21:50.816Z,58.99
2019-03-19T12:24:19.149Z,57.30
2019-03-19T12:26:47.403Z,59.89
2019-03-19T12:29:15.661Z,58.94
2019-03-19T12:31:43.915Z,57.27
2019-03-19T12:34:12.180Z,59.40
2019-03-19T12:36:40.429Z,59.00
2019-03-19T12:42:29.349Z,59.44
2019-03-19T12:44:57.606Z,58.68
2019-03-19T12:47:25.873Z,59.83
2019-03-19T12:49:54.664Z,57.83
2019-03-19T12:52:22.925Z,57.73
2019-03-19T12:54:51.180Z,58.51
2019-03-19T12:57:19.439Z,56.03
2019-03-19T12:59:47.692Z,57.37
2019-03-19T13:02:15.960Z,58.88
2019-03-19T13:04:44.226Z,60.50
2019-03-19T13:07:12.487Z,58.89
2019-03-19T13:09:40.738Z,58.53
2019-03-19T13:12:09.003Z,58.93
2019-03-19T13:14:37.258Z,58.85
2019-03-19T13:17:05.523Z,58.07
2019-03-19T13:19:33.787Z,58.02
2019-03-19T13:22:02.045Z,58.10
2019-03-19T13:24:30.307Z,57.63
2019-03-19T13:26:58.574Z,58.20
2019-03-19T13:29:26.833Z,59.39
2019-03-19T13:31:55.082Z,58.47
2019-03-19T13:34:23.391Z,56.17
2019-03-19T13:36:51.645Z,56.46
2019-03-19T13:39:19.909Z,55.43
2019-03-19T13:41:48.160Z,56.66
2019-03-19T13:44:16.421Z,57.96
2019-03-19T13:46:44.688Z,57.35
2019-03-19T13:49:13.052Z,58.69
2019-03-19T13:51:41.327Z,56.91
2019-03-19T13:54:09.573Z,58.99
2019-03-19T13:56:37.843Z,58.20
2019-03-19T13:59:06.104Z,58.49
2019-03-19T14:01:34.367Z,59.73
2019-03-19T14:04:02.624Z,57.68
2019-03-19T14:06:30.879Z,59.47
2019-03-19T14:08:59.137Z,59.72
2019-03-19T14:11:27.385Z,59.30
2019-03-19T14:13:55.927Z,59.64
2019-03-19T14:16:25.626Z,60.06
2019-03-19T14:21:54.521Z,59.97
2019-03-19T14:24:22.779Z,59.07
2019-03-19T14:26:51.026Z,56.43
2019-03-19T14:29:19.286Z,56.84
2019-03-19T14:31:47.566Z,56.12
2019-03-19T14:34:15.825Z,55.99
2019-03-19T14:36:44.084Z,55.91
2019-03-19T14:39:12.361Z,56.16
2019-03-19T14:41:40.616Z,56.46
2019-03-19T14:44:08.880Z,57.46
2019-03-19T14:46:37.130Z,59.31
2019-03-19T14:49:05.396Z,58.44
2019-03-19T14:51:33.654Z,57.23
2019-03-19T14:54:01.949Z,58.71
2019-03-19T14:56:30.202Z,60.51
2019-03-19T14:58:58.754Z,60.79
2019-03-19T15:01:27.005Z,60.79
2019-03-19T15:03:55.263Z,60.20
2019-03-19T15:06:23.526Z,58.92
2019-03-19T15:08:51.789Z,59.83
2019-03-19T15:11:20.052Z,60.14
2019-03-19T15:13:48.308Z,60.66
2019-03-19T15:16:16.578Z,59.92
2019-03-19T15:18:44.834Z,59.83
2019-03-19T15:21:13.088Z,60.17
2019-03-19T15:23:41.499Z,60.23
2019-03-19T15:26:09.772Z,61.50
2019-03-19T15:28:38.048Z,60.88
2019-03-19T15:31:06.315Z,61.41
2019-03-19T15:33:34.573Z,60.66
2019-03-19T15:36:02.855Z,61.56
2019-03-19T15:38:31.094Z,62.68
2019-03-19T15:40:59.366Z,63.55
2019-03-19T15:43:27.613Z,63.69
2019-03-19T15:45:55.953Z,64.06
2019-03-19T15:48:24.199Z,64.00
2019-03-19T15:50:52.476Z,64.32
2019-03-19T15:53:20.789Z,65.09
2019-03-19T15:55:49.056Z,65.37
2019-03-19T15:58:17.310Z,66.22
2019-03-19T16:00:45.567Z,66.24
2019-03-19T16:03:13.839Z,67.08
2019-03-19T16:05:42.091Z,65.82
2019-03-19T16:08:10.349Z,66.33
2019-03-19T16:10:38.614Z,66.46
2019-03-19T16:13:06.881Z,67.17
2019-03-19T16:15:35.141Z,67.84
2019-03-19T16:18:03.410Z,68.38
2019-03-19T16:20:31.669Z,69.11
2019-03-19T16:22:59.933Z,69.61
2019-03-19T16:25:28.195Z,68.98
2019-03-19T16:27:56.489Z,68.89
2019-03-19T16:33:33.229Z,68.91
2019-03-19T16:36:01.502Z,69.46
2019-03-19T16:38:29.765Z,69.05
2019-03-19T16:40:58.013Z,69.06
2019-03-19T16:43:26.297Z,69.58
2019-03-19T16:45:54.553Z,69.01
2019-03-19T16:48:22.820Z,69.44
2019-03-19T16:50:51.075Z,69.89
2019-03-19T16:53:19.344Z,70.44
2019-03-19T16:55:47.606Z,70.73
2019-03-19T16:58:15.861Z,71.09
2019-03-19T17:01:03.241Z,71.28
2019-03-19T17:03:31.498Z,71.20
2019-03-19T17:05:59.772Z,71.04
2019-03-19T17:08:28.046Z,71.56
2019-03-19T17:10:56.309Z,71.84
2019-03-19T17:16:37.519Z,72.60
2019-03-19T17:25:43.832Z,73.93
2019-03-19T17:28:21.908Z,73.68
2019-03-19T17:34:02.817Z,73.57
2019-03-19T17:36:31.076Z,74.05
2019-03-19T17:38:59.332Z,74.64
2019-03-19T17:41:27.619Z,74.75
2019-03-19T17:43:55.878Z,75.49
2019-03-19T17:46:24.134Z,75.47
2019-03-19T17:48:52.428Z,75.76
2019-03-19T17:51:20.677Z,76.04
2019-03-19T17:53:48.935Z,76.80
2019-03-19T17:56:17.197Z,77.16
2019-03-19T17:58:45.467Z,76.08
2019-03-19T18:01:17.602Z,76.38
2019-03-19T18:03:43.728Z,76.73
2019-03-19T18:06:11.994Z,76.56
2019-03-19T18:08:40.264Z,76.86
2019-03-19T18:11:08.521Z,76.96
2019-03-19T18:13:36.804Z,76.80
2019-03-19T18:16:05.072Z,76.55
2019-03-19T18:18:33.329Z,76.69
2019-03-19T18:21:01.588Z,76.52
2019-03-19T18:23:29.847Z,76.67
2019-03-19T18:25:58.123Z,76.84
2019-03-19T18:28:26.375Z,77.34
2019-03-19T18:30:54.635Z,77.36
2019-03-19T18:33:22.898Z,77.58
2019-03-19T18:35:53.556Z,77.71
2019-03-19T18:38:21.205Z,77.79
2019-03-19T18:40:49.468Z,78.55
2019-03-19T18:43:19.805Z,78.55
2019-03-19T18:45:48.068Z,78.77
2019-03-19T18:48:16.342Z,79.21
2019-03-19T18:50:44.596Z,79.42
2019-03-19T18:53:12.851Z,79.50
2019-03-19T18:55:41.135Z,79.60
2019-03-19T18:58:09.396Z,80.05
2019-03-19T19:00:37.666Z,79.93
2019-03-19T19:03:05.928Z,80.68
2019-03-19T19:05:34.181Z,81.13
2019-03-19T19:11:27.706Z,81.75
2019-03-19T19:13:55.977Z,82.79
2019-03-19T19:16:24.245Z,83.28
2019-03-19T19:18:52.494Z,83.34
2019-03-19T19:21:20.758Z,83.74
2019-03-19T19:23:49.023Z,84.65
2019-03-19T19:26:17.287Z,84.65
2019-03-19T19:28:48.414Z,85.05
2019-03-19T19:31:16.673Z,85.38
2019-03-19T19:33:44.968Z,85.97
2019-03-19T19:36:13.231Z,85.52
2019-03-19T19:38:41.536Z,85.82
2019-03-19T19:44:29.908Z,86.57
2019-03-19T19:46:57.886Z,87.29
2019-03-19T19:49:26.176Z,88.00
2019-03-19T19:51:54.566Z,88.30
2019-03-19T19:54:22.897Z,88.82
2019-03-19T19:56:51.169Z,88.71
2019-03-19T19:59:19.482Z,89.14
2019-03-19T20:01:47.766Z,89.28
2019-03-19T20:04:16.038Z,89.02
2019-03-19T20:06:44.320Z,89.33
2019-03-19T20:09:12.630Z,89.84
2019-03-19T20:11:40.944Z,89.82
2019-03-19T20:14:09.248Z,90.28
2019-03-19T20:16:37.543Z,90.94
2019-03-19T20:19:05.864Z,91.15
2019-03-19T20:21:34.181Z,91.66
2019-03-19T20:24:02.494Z,92.04
2019-03-19T20:26:30.800Z,92.90
2019-03-19T20:28:59.114Z,93.33
2019-03-19T20:31:27.382Z,93.04
2019-03-19T20:33:55.646Z,94.10
2019-03-19T20:36:23.893Z,94.88
2019-03-19T20:38:52.216Z,95.16
2019-03-19T20:41:20.516Z,95.15
2019-03-19T20:43:48.777Z,95.80
2019-03-19T20:46:17.049Z,96.15
2019-03-19T20:48:45.339Z,96.16
2019-03-19T20:51:49.422Z,96.10
2019-03-19T20:54:17.686Z,96.60
2019-03-19T20:56:45.956Z,96.68
2019-03-19T20:59:15.978Z,97.38
2019-03-19T21:01:44.203Z,98.15
2019-03-19T21:04:12.474Z,97.66
2019-03-19T21:06:40.733Z,97.32
2019-03-19T21:09:09.066Z,97.56
2019-03-19T21:11:37.315Z,97.72
2019-03-19T21:14:05.589Z,97.91
2019-03-19T21:16:33.849Z,98.19
2019-03-19T21:19:02.114Z,98.36
2019-03-19T21:21:30.370Z,98.34
2019-03-19T21:23:58.642Z,98.22
2019-03-19T21:26:26.891Z,99.01
2019-03-19T21:28:55.149Z,99.40
2019-03-19T21:31:23.417Z,99.58
2019-03-19T21:33:51.728Z,99.61
2019-03-19T21:36:19.947Z,99.97
2019-03-19T21:38:48.212Z,100.00
2019-03-19T21:44:37.459Z,100.00
2019-03-19T21:47:06.093Z,100.00
2019-03-19T21:49:34.366Z,100.00
2019-03-19T21:52:02.618Z,100.00
2019-03-19T21:54:30.902Z,100.00
2019-03-19T21:56:59.158Z,100.00
2019-03-19T21:59:27.432Z,100.00
2019-03-19T22:01:55.683Z,100.00
2019-03-19T22:04:23.952Z,100.00
2019-03-19T22:06:52.235Z,100.00
2019-03-19T22:09:20.488Z,100.00
2019-03-19T22:11:48.770Z,100.00
2019-03-19T22:14:17.031Z,100.00
2019-03-19T22:16:45.304Z,100.00
2019-03-19T22:19:13.564Z,100.00
2019-03-19T22:25:02.930Z,100.00
2019-03-19T22:27:31.177Z,100.00
2019-03-19T22:29:59.464Z,100.00
2019-03-19T22:32:27.717Z,100.00
2019-03-19T22:34:55.983Z,100.00
2019-03-19T22:37:24.240Z,100.00
2019-03-19T22:39:52.509Z,100.00
2019-03-19T22:42:20.772Z,100.00
2019-03-19T22:44:49.035Z,100.00
2019-03-19T22:47:17.301Z,100.00
2019-03-19T22:49:45.573Z,100.00
2019-03-19T22:52:13.845Z,100.00
2019-03-19T22:54:42.101Z,100.00
2019-03-19T22:57:10.370Z,100.00
2019-03-19T22:59:38.632Z,100.00
2019-03-19T23:02:06.899Z,100.00
2019-03-19T23:04:35.175Z,100.00
2019-03-19T23:13:12.050Z,100.00
2019-03-19T23:15:41.100Z,100.00
2019-03-19T23:18:27.302Z,100.00
2019-03-19T23:20:55.577Z,100.00
2019-03-19T23:23:23.864Z,100.00
2019-03-19T23:28:49.747Z,100.00
2019-03-19T23:31:18.018Z,100.00
2019-03-19T23:33:46.284Z,100.00
2019-03-19T23:36:14.554Z,100.00
2019-03-19T23:38:42.832Z,100.00
2019-03-19T23:41:11.103Z,100.00
2019-03-19T23:43:39.392Z,100.00
2019-03-19T23:49:04.230Z,100.00
2019-03-19T23:51:32.498Z,100.00
2019-03-19T23:54:00.788Z,100.00
2019-03-19T23:59:16.405Z,100.00
